Climax Springs, Missouri
Current Conditions -  °F | °C
As of 12:15 PM on Monday 22 Dec 2014 (Local Time) from KH21 Reporting Station
Light Rain Light Rain  
Wind Chill: 41°   Ceiling: 800
Heat Index: 46°   Visibility: 10mi
Dew Point: 45°   Wind: 10mph
Humidity: 93%   Direction: 130°SE
Pressure: 29.55"   Gusts: NA
Location:  38.1°N, 93.05°W
Report Text: KH21 221815Z AUTO 13009KT 10SM -RA BKN008 BKN011 OVC026 08/07 A2955 RMK AO2
Loading
Personal Weather Stations






























Interactive Weather Map New forecast layout! Learn more

10-Day Weather Forecast

Advertisements
Track Severe Weather on mobile